Search for airport 
image banner adimage banner ad
image banner ad

SIUA - Fazenda Barra do Lagoa Airport

Located in Santa Rita Do Pardo, Brazil

ICAO - SIUA, IATA -

Data provided by Airmate  

General information

Coordinates: S30°7'10" W50°51'13"
Elevation is 118 feet MSL.
Magnetic variation is -17° East
View others Airports in Rio Grande do Sul

Operational data

Open for public use
Current time UTC:
Current local time:
Weather at : SBPA - Salgado Filho ( 34 km )
METAR: SBPA 262225Z 08010KT 4000 -RA BR BKN008 OVC019 22/22 Q1003 RERA
TAF: TAF SBPA 261500Z 2618/2718 30012KT 9000 SHRA SCT025 TX28/2618Z TN22/2708Z PROB40 2620/2702 10010KT 8000 TSRA BKN015 FEW030CB BECMG 2702/2704 29014KT 6000 DZ BKN012 FEW025TCU BECMG 2706/2708 28015KT 8000 SHRA BKN017 BECMG 2709/2711 9000 BKN024 BECMG 2715/2717 27010KT 9999 FEW030 RMK PAY
View NOTAMs / SUP AIP / TFR affecting this airport [VIEW]
Communications frequencies: [VIEW]

Runways:

RWY identifierQFULength (ft)Width (ft)SurfaceLDA (ft)
17147665GRASS
35147665GRASS

Airport contact information

Address: Santa Rita Do Pardo Brazil

Satellite view of SIUA